Time;durP1;ratioP1;P1;durP2;ratioP2;P2;SDS_P1;SDS_P2;PMS_P1;PMS_P2;Temp;Humidity;BMP_temperature;BMP_pressure;BME280_temperature;BME280_humidity;BME280_pressure;Samples;Min_cycle;Max_cycle;Signal;HPM_P1;HPM_P2
2023/05/21 00:02:10;;;;;;;11.18;8.38;;;15.40;77.90;;;;;;5034940;28;20025;-71
2023/05/21 00:04:36;;;;;;;9.25;8.23;;;15.40;77.00;;;;;;5034541;28;20462;-72
2023/05/21 00:07:02;;;;;;;10.43;7.80;;;15.30;76.80;;;;;;5034866;28;20060;-72
2023/05/21 00:09:28;;;;;;;10.73;7.95;;;15.30;76.80;;;;;;5034770;28;20490;-72
2023/05/21 00:11:53;;;;;;;8.65;7.10;;;15.20;76.80;;;;;;5034752;28;20021;-72
2023/05/21 00:14:19;;;;;;;9.80;7.97;;;15.20;77.00;;;;;;5034622;28;20075;-72
2023/05/21 00:16:45;;;;;;;8.35;7.50;;;15.20;76.90;;;;;;5034457;28;20097;-72
2023/05/21 00:19:11;;;;;;;10.57;8.05;;;15.10;77.10;;;;;;5034629;28;20024;-72
2023/05/21 00:21:38;;;;;;;11.13;8.15;;;15.10;77.10;;;;;;5034551;28;20037;-72
2023/05/21 00:24:04;;;;;;;8.90;7.90;;;15.00;76.90;;;;;;5034448;28;20041;-72
2023/05/21 00:26:30;;;;;;;9.85;7.97;;;15.00;77.10;;;;;;5034495;28;20029;-72
2023/05/21 00:28:55;;;;;;;10.98;8.00;;;14.90;77.30;;;;;;5034308;28;20037;-72
2023/05/21 00:31:21;;;;;;;9.38;7.78;;;14.80;77.50;;;;;;5034063;28;20024;-72
2023/05/21 00:33:46;;;;;;;8.85;7.95;;;14.80;77.70;;;;;;5034295;28;20469;-72
2023/05/21 00:36:13;;;;;;;11.18;7.90;;;14.80;77.80;;;;;;5034212;28;20482;-72
2023/05/21 00:38:42;;;;;;;8.35;7.55;;;14.80;77.80;;;;;;5033873;28;20028;-72
2023/05/21 00:41:11;;;;;;;9.80;7.80;;;14.70;78.90;;;;;;5034067;28;20026;-72
2023/05/21 00:43:40;;;;;;;11.15;7.97;;;14.70;78.10;;;;;;5032778;28;20631;-72
2023/05/21 00:46:07;;;;;;;13.63;8.45;;;14.70;78.20;;;;;;5033660;28;20067;-72
2023/05/21 00:48:33;;;;;;;9.82;8.10;;;14.60;78.20;;;;;;5033788;28;20053;-72
2023/05/21 00:50:59;;;;;;;12.10;9.55;;;14.60;78.20;;;;;;5034068;28;20026;-72
2023/05/21 00:53:26;;;;;;;10.70;8.25;;;14.60;78.10;;;;;;5034012;28;20025;-72
2023/05/21 00:55:52;;;;;;;11.55;9.57;;;14.50;78.30;;;;;;5032762;28;20017;-72
2023/05/21 00:58:18;;;;;;;12.40;8.32;;;14.50;78.50;;;;;;5033887;28;20407;-72
2023/05/21 01:00:44;;;;;;;11.52;9.38;;;14.50;78.50;;;;;;5033906;28;20048;-72
2023/05/21 01:03:10;;;;;;;9.95;8.80;;;14.50;78.80;;;;;;5033820;28;20390;-72
2023/05/21 01:05:37;;;;;;;11.50;8.90;;;14.40;78.80;;;;;;5033574;28;20055;-72
2023/05/21 01:08:03;;;;;;;10.48;8.98;;;14.40;78.80;;;;;;5033636;28;20029;-72
2023/05/21 01:10:29;;;;;;;10.25;9.07;;;14.50;78.80;;;;;;5033682;28;20034;-72
2023/05/21 01:12:56;;;;;;;10.20;8.18;;;14.50;78.70;;;;;;5033588;28;20079;-72
2023/05/21 01:15:23;;;;;;;9.98;8.75;;;14.50;78.50;;;;;;5033735;28;20029;-71
2023/05/21 01:17:50;;;;;;;11.60;8.73;;;14.40;78.40;;;;;;5033602;28;20022;-72
2023/05/21 01:20:17;;;;;;;11.23;9.25;;;14.30;78.60;;;;;;5033574;28;20021;-72
2023/05/21 01:22:56;;;;;;;10.55;9.25;;;14.30;79.00;;;;;;5033594;28;20018;-72
2023/05/21 01:25:22;;;;;;;9.23;8.32;;;14.40;79.10;;;;;;5033440;28;20485;-72
2023/05/21 01:27:49;;;;;;;10.32;8.77;;;14.30;78.90;;;;;;5033160;28;20021;-72
2023/05/21 01:30:17;;;;;;;11.73;9.23;;;14.30;79.00;;;;;;5033471;28;20428;-72
2023/05/21 01:33:01;;;;;;;9.77;8.57;;;14.30;79.80;;;;;;5033331;28;20097;-71
2023/05/21 01:35:43;;;;;;;11.82;8.65;;;14.30;78.80;;;;;;5033410;28;20025;-72
2023/05/21 01:38:13;;;;;;;10.85;8.65;;;14.40;78.60;;;;;;5033229;28;20025;-72
2023/05/21 01:40:41;;;;;;;11.07;9.57;;;14.40;78.40;;;;;;5031871;28;20032;-72
2023/05/21 01:43:08;;;;;;;14.52;9.65;;;14.30;78.40;;;;;;5032632;28;20025;-72
2023/05/21 01:45:38;;;;;;;12.68;9.43;;;14.30;78.40;;;;;;5033190;28;20029;-72
2023/05/21 01:48:05;;;;;;;11.75;8.98;;;14.30;78.50;;;;;;5032921;28;20057;-71
2023/05/21 01:50:32;;;;;;;13.70;9.75;;;14.30;78.70;;;;;;5033120;28;20065;-71
2023/05/21 01:52:59;;;;;;;12.27;9.65;;;14.20;78.60;;;;;;5033055;28;20017;-71
2023/05/21 01:55:27;;;;;;;11.57;9.95;;;14.20;78.80;;;;;;5033051;28;20029;-72
2023/05/21 01:57:54;;;;;;;11.77;9.10;;;14.20;78.90;;;;;;5033089;28;20083;-71
2023/05/21 02:00:21;;;;;;;10.60;8.98;;;14.20;78.90;;;;;;5032937;28;20075;-71
2023/05/21 02:02:47;;;;;;;11.25;9.35;;;14.20;78.70;;;;;;5033027;28;20057;-72
2023/05/21 02:05:13;;;;;;;11.45;9.27;;;14.20;78.80;;;;;;5032849;28;20069;-71
2023/05/21 02:07:39;;;;;;;11.77;9.93;;;14.20;78.90;;;;;;5032825;28;20030;-71
2023/05/21 02:10:05;;;;;;;10.75;9.02;;;14.20;79.10;;;;;;5032614;28;20025;-71
2023/05/21 02:12:31;;;;;;;10.63;9.25;;;14.20;79.00;;;;;;5032935;28;20088;-71
2023/05/21 02:14:56;;;;;;;10.05;8.95;;;14.10;79.10;;;;;;5033069;28;20018;-73
2023/05/21 02:17:23;;;;;;;10.77;9.40;;;14.10;79.00;;;;;;5032891;28;20474;-71
2023/05/21 02:19:49;;;;;;;13.90;10.30;;;14.10;78.90;;;;;;5032811;28;20108;-71
2023/05/21 02:22:15;;;;;;;13.52;9.95;;;14.10;78.80;;;;;;5032837;28;20021;-72
2023/05/21 02:24:40;;;;;;;12.93;9.70;;;14.10;79.00;;;;;;5032633;28;20084;-73
2023/05/21 02:27:06;;;;;;;11.13;9.20;;;14.00;79.10;;;;;;5032821;28;20087;-71
2023/05/21 02:29:31;;;;;;;12.13;9.90;;;14.00;79.10;;;;;;5032740;28;20042;-72
2023/05/21 02:31:57;;;;;;;11.50;9.93;;;14.00;79.10;;;;;;5032745;28;20024;-72
2023/05/21 02:34:23;;;;;;;14.13;9.63;;;14.00;79.10;;;;;;5032603;28;20029;-72
2023/05/21 02:36:52;;;;;;;9.63;8.63;;;14.00;79.20;;;;;;5032476;28;20077;-71
2023/05/21 02:39:18;;;;;;;12.63;9.85;;;14.00;79.30;;;;;;5032672;28;20022;-72
2023/05/21 02:41:45;;;;;;;15.18;10.05;;;13.90;79.50;;;;;;5032613;28;20029;-72
2023/05/21 02:44:11;;;;;;;11.73;9.30;;;13.90;79.60;;;;;;5032694;28;20025;-72
2023/05/21 02:46:36;;;;;;;11.40;9.82;;;13.90;79.80;;;;;;5032293;28;20037;-71
2023/05/21 02:49:02;;;;;;;13.05;9.68;;;13.90;79.70;;;;;;5032448;28;20064;-72
2023/05/21 02:51:28;;;;;;;11.85;9.90;;;13.80;79.60;;;;;;5031305;28;20462;-71
2023/05/21 02:53:53;;;;;;;11.48;9.98;;;13.80;79.80;;;;;;5032393;28;20105;-72
2023/05/21 02:56:19;;;;;;;11.43;10.13;;;13.80;79.80;;;;;;5035975;28;20105;-72
2023/05/21 02:58:44;;;;;;;12.18;10.10;;;13.90;79.90;;;;;;5036277;28;20450;-72
2023/05/21 03:01:10;;;;;;;11.98;10.68;;;13.80;79.50;;;;;;5036221;28;20092;-72
2023/05/21 03:03:35;;;;;;;11.95;10.10;;;13.70;79.70;;;;;;5036008;28;20095;-72
2023/05/21 03:06:01;;;;;;;14.13;10.27;;;13.70;79.90;;;;;;5036010;28;20124;-71
2023/05/21 03:08:27;;;;;;;13.63;11.57;;;13.70;80.00;;;;;;5036055;28;20057;-72
2023/05/21 03:10:52;;;;;;;11.80;10.32;;;13.60;79.90;;;;;;5035997;28;20155;-72
2023/05/21 03:13:18;;;;;;;13.73;10.55;;;13.60;80.10;;;;;;5035818;28;20384;-72
2023/05/21 03:15:45;;;;;;;13.35;10.95;;;13.60;80.20;;;;;;5035863;28;20036;-72
2023/05/21 03:18:10;;;;;;;14.60;10.73;;;13.50;80.30;;;;;;5035956;28;20469;-72
2023/05/21 03:20:42;;;;;;;18.05;11.30;;;13.50;80.70;;;;;;5034457;28;20049;-73
2023/05/21 03:23:08;;;;;;;15.20;11.32;;;13.50;80.80;;;;;;5035751;28;20493;-72
2023/05/21 03:25:35;;;;;;;13.93;11.70;;;13.40;81.60;;;;;;5035769;28;20025;-72
2023/05/21 03:28:01;;;;;;;12.90;11.48;;;13.40;80.90;;;;;;5035664;28;20036;-72
2023/05/21 03:30:26;;;;;;;16.25;11.93;;;13.40;81.20;;;;;;5035585;28;20021;-72
2023/05/21 03:32:52;;;;;;;14.05;11.30;;;13.30;81.20;;;;;;5035540;28;20056;-71
2023/05/21 03:35:17;;;;;;;12.52;11.23;;;13.40;81.20;;;;;;5034235;28;20040;-72
2023/05/21 03:37:43;;;;;;;12.65;10.43;;;13.40;81.10;;;;;;5035412;28;20030;-72
2023/05/21 03:40:09;;;;;;;13.75;12.05;;;13.40;81.00;;;;;;5035415;28;20030;-73
2023/05/21 03:42:35;;;;;;;13.23;11.20;;;13.40;81.00;;;;;;5035461;28;20081;-72
2023/05/21 03:45:00;;;;;;;13.90;11.75;;;13.40;81.00;;;;;;5035288;28;20053;-72
2023/05/21 03:47:26;;;;;;;13.15;11.75;;;13.40;81.00;;;;;;5035171;28;20121;-72
2023/05/21 03:49:51;;;;;;;13.18;11.23;;;13.40;80.90;;;;;;5035210;28;20064;-72
2023/05/21 03:52:17;;;;;;;13.07;11.38;;;13.40;80.80;;;;;;5033824;28;20080;-72
2023/05/21 03:54:43;;;;;;;11.95;10.75;;;13.40;81.00;;;;;;5035098;28;20029;-72
2023/05/21 03:57:08;;;;;;;13.82;10.95;;;13.40;81.00;;;;;;5035179;28;20065;-73
2023/05/21 03:59:34;;;;;;;11.98;10.55;;;13.40;80.90;;;;;;5035070;28;20026;-72
2023/05/21 04:01:59;;;;;;;14.45;11.40;;;13.40;81.00;;;;;;5034968;28;20029;-72
2023/05/21 04:04:25;;;;;;;11.95;10.75;;;13.40;81.00;;;;;;5034959;28;20030;-72
2023/05/21 04:06:53;;;;;;;12.05;10.23;;;13.40;80.90;;;;;;5034002;28;20055;-72
2023/05/21 04:09:18;;;;;;;15.18;10.60;;;13.40;80.70;;;;;;5033272;28;20428;-72
2023/05/21 04:11:44;;;;;;;12.73;10.73;;;13.40;80.70;;;;;;5033506;28;20021;-72
2023/05/21 04:14:09;;;;;;;13.68;10.70;;;13.40;80.80;;;;;;5034769;28;20075;-73
2023/05/21 04:16:37;;;;;;;11.70;10.48;;;13.40;80.80;;;;;;5034723;28;20382;-71
2023/05/21 04:19:03;;;;;;;12.98;11.57;;;13.50;80.80;;;;;;5034522;28;20466;-72
2023/05/21 04:21:28;;;;;;;16.55;11.57;;;13.50;80.90;;;;;;5034683;28;20022;-72
2023/05/21 04:23:56;;;;;;;14.65;11.60;;;13.40;80.80;;;;;;5034712;28;20031;-71
2023/05/21 04:26:22;;;;;;;12.68;11.13;;;13.40;81.00;;;;;;5033289;28;20492;-72
2023/05/21 04:28:49;;;;;;;11.68;10.48;;;13.50;80.80;;;;;;5034368;28;20068;-72
2023/05/21 04:31:14;;;;;;;12.18;10.88;;;13.50;80.80;;;;;;5034393;28;20109;-72
2023/05/21 04:33:44;;;;;;;12.82;11.05;;;13.50;80.70;;;;;;5034442;28;20437;-72
2023/05/21 04:36:10;;;;;;;12.70;11.32;;;13.50;80.60;;;;;;5034216;28;20022;-72
2023/05/21 04:38:36;;;;;;;13.98;11.60;;;13.50;80.40;;;;;;5034057;28;20044;-72
2023/05/21 04:41:05;;;;;;;12.55;11.25;;;13.50;80.40;;;;;;5033940;28;20017;-72
2023/05/21 04:43:31;;;;;;;12.90;11.43;;;13.50;80.50;;;;;;5035559;28;20021;-72
2023/05/21 04:45:56;;;;;;;14.02;12.50;;;13.50;80.70;;;;;;5033635;28;20544;-72
2023/05/21 04:48:23;;;;;;;14.43;12.65;;;13.50;80.90;;;;;;5033774;28;20401;-72
2023/05/21 04:50:49;;;;;;;15.63;12.15;;;13.50;81.00;;;;;;5034095;28;20021;-72
2023/05/21 04:53:15;;;;;;;13.77;12.38;;;13.40;81.00;;;;;;5034102;28;20075;-72
2023/05/21 04:55:41;;;;;;;15.73;11.80;;;13.50;81.20;;;;;;5032771;28;20018;-72
2023/05/21 04:58:09;;;;;;;13.13;11.73;;;13.50;81.20;;;;;;5033876;28;20374;-72
2023/05/21 05:00:36;;;;;;;14.50;12.93;;;13.60;81.30;;;;;;5033851;28;20021;-73
2023/05/21 05:03:02;;;;;;;14.55;12.63;;;13.60;81.00;;;;;;5033847;28;20143;-74
2023/05/21 05:05:28;;;;;;;13.95;12.43;;;13.70;80.90;;;;;;5033796;28;20053;-72
2023/05/21 05:07:53;;;;;;;13.60;11.52;;;13.70;80.70;;;;;;5033803;28;20032;-73
2023/05/21 05:10:19;;;;;;;16.80;11.40;;;13.70;80.70;;;;;;5033792;28;20049;-73
2023/05/21 05:12:44;;;;;;;13.65;12.13;;;13.80;80.60;;;;;;5033712;28;20033;-73
2023/05/21 05:15:10;;;;;;;11.02;9.93;;;13.80;80.40;;;;;;5033693;28;20035;-73
2023/05/21 05:17:35;;;;;;;12.90;11.48;;;13.90;80.40;;;;;;5033298;28;20030;-73
2023/05/21 05:20:01;;;;;;;13.20;11.52;;;14.00;80.10;;;;;;5032108;28;20033;-73
2023/05/21 05:22:27;;;;;;;17.17;11.82;;;14.00;80.10;;;;;;5033682;28;20439;-73
2023/05/21 05:24:52;;;;;;;13.23;11.18;;;14.10;80.00;;;;;;5033497;28;20071;-72
2023/05/21 05:27:18;;;;;;;12.43;10.63;;;14.20;79.60;;;;;;5033482;28;20029;-73
2023/05/21 05:29:47;;;;;;;11.75;10.55;;;14.30;79.20;;;;;;5033457;28;20124;-73
2023/05/21 05:32:12;;;;;;;12.30;10.60;;;14.30;78.90;;;;;;5033434;28;20026;-73
2023/05/21 05:34:38;;;;;;;13.00;11.15;;;14.40;78.70;;;;;;5033361;28;20032;-73
2023/05/21 05:37:03;;;;;;;13.35;11.00;;;14.50;78.60;;;;;;5033170;28;20027;-73
2023/05/21 05:39:29;;;;;;;13.05;11.27;;;14.50;78.40;;;;;;5033304;28;20022;-74
2023/05/21 05:41:55;;;;;;;13.43;11.38;;;14.60;78.30;;;;;;5031956;28;20532;-73
2023/05/21 05:44:20;;;;;;;14.55;10.93;;;14.60;78.00;;;;;;5033212;28;20063;-73
2023/05/21 05:46:46;;;;;;;12.85;10.90;;;14.70;77.80;;;;;;5032612;28;20386;-73
2023/05/21 05:49:15;;;;;;;12.63;10.75;;;14.70;77.80;;;;;;5033119;28;20037;-73
2023/05/21 05:51:41;;;;;;;14.10;11.95;;;14.80;77.80;;;;;;5032891;28;20051;-73
2023/05/21 05:54:07;;;;;;;17.35;12.68;;;14.80;77.70;;;;;;5032792;28;20025;-73
2023/05/21 05:56:32;;;;;;;14.27;11.90;;;14.90;77.50;;;;;;5033124;28;20108;-73
2023/05/21 05:58:58;;;;;;;12.07;10.80;;;14.90;77.50;;;;;;5033021;28;20546;-73
2023/05/21 06:01:25;;;;;;;12.73;11.43;;;15.00;77.40;;;;;;5032980;28;20108;-73
2023/05/21 06:03:51;;;;;;;12.35;11.10;;;15.10;77.60;;;;;;5032948;28;20052;-73
2023/05/21 06:06:16;;;;;;;13.85;12.35;;;15.20;77.30;;;;;;5032946;28;20036;-73
2023/05/21 06:08:42;;;;;;;12.90;11.55;;;15.20;77.10;;;;;;5032802;28;20033;-73
2023/05/21 06:11:08;;;;;;;14.32;12.60;;;15.30;76.70;;;;;;5032847;28;20079;-73
2023/05/21 06:13:34;;;;;;;15.35;12.95;;;15.50;76.40;;;;;;5032646;28;20076;-73
2023/05/21 06:16:00;;;;;;;14.65;11.65;;;15.60;76.10;;;;;;5032961;28;20025;-73
2023/05/21 06:18:25;;;;;;;17.60;14.50;;;15.70;75.80;;;;;;5032875;28;20481;-73
2023/05/21 06:20:51;;;;;;;14.35;12.50;;;15.70;75.40;;;;;;5032808;28;20394;-73
2023/05/21 06:23:16;;;;;;;15.65;13.77;;;15.80;75.10;;;;;;5032727;28;20022;-73
2023/05/21 06:25:42;;;;;;;14.65;12.68;;;15.80;75.10;;;;;;5032591;28;20381;-73
2023/05/21 06:28:08;;;;;;;16.88;13.90;;;15.80;75.00;;;;;;5032498;28;20061;-73
2023/05/21 06:30:33;;;;;;;18.27;13.25;;;15.90;75.20;;;;;;5034024;28;20065;-72
2023/05/21 06:32:59;;;;;;;15.60;13.93;;;16.00;74.90;;;;;;5036644;28;20044;-73
2023/05/21 06:35:25;;;;;;;18.25;13.70;;;16.00;75.00;;;;;;5036659;28;20029;-73
2023/05/21 06:37:50;;;;;;;17.40;13.63;;;16.10;75.10;;;;;;5036432;28;20029;-73
2023/05/21 06:40:16;;;;;;;14.73;12.52;;;16.10;74.90;;;;;;5036343;28;20067;-73
2023/05/21 06:42:41;;;;;;;14.80;12.60;;;16.20;74.90;;;;;;5036328;28;20075;-73
2023/05/21 06:45:07;;;;;;;16.63;12.80;;;16.30;74.80;;;;;;5036266;28;20021;-73
2023/05/21 06:47:33;;;;;;;17.48;12.63;;;16.50;74.40;;;;;;5034936;28;20045;-73
2023/05/21 06:49:59;;;;;;;16.23;14.35;;;16.60;73.80;;;;;;5036152;28;20045;-73
2023/05/21 06:52:25;;;;;;;15.65;13.23;;;16.70;73.00;;;;;;5035011;28;20484;-73
2023/05/21 06:54:51;;;;;;;16.15;12.65;;;16.80;72.40;;;;;;5036316;28;20097;-73
2023/05/21 06:57:17;;;;;;;17.50;13.68;;;17.00;72.10;;;;;;5036207;28;20030;-73
2023/05/21 06:59:43;;;;;;;14.02;12.07;;;17.10;71.50;;;;;;5036149;28;20036;-73
2023/05/21 07:02:08;;;;;;;16.80;12.70;;;17.10;71.20;;;;;;5036126;28;20100;-73
2023/05/21 07:04:34;;;;;;;17.50;13.95;;;17.20;71.60;;;;;;5036122;28;20021;-73
2023/05/21 07:07:00;;;;;;;18.67;15.00;;;17.30;69.90;;;;;;5036027;28;20026;-73
2023/05/21 07:09:26;;;;;;;15.82;14.13;;;17.30;70.20;;;;;;5035863;28;20037;-73
2023/05/21 07:11:52;;;;;;;19.33;16.20;;;17.40;70.00;;;;;;5035981;28;20036;-72
2023/05/21 07:14:18;;;;;;;17.58;15.60;;;17.50;69.30;;;;;;5035943;28;20029;-71
2023/05/21 07:16:43;;;;;;;19.27;14.85;;;17.50;69.70;;;;;;5035868;28;20034;-73
2023/05/21 07:19:09;;;;;;;18.38;15.15;;;17.50;69.50;;;;;;5035836;28;20057;-72
2023/05/21 07:21:35;;;;;;;18.10;14.18;;;17.60;68.90;;;;;;5035636;28;20051;-72
2023/05/21 07:24:00;;;;;;;16.85;13.02;;;17.70;68.70;;;;;;5035969;28;20029;-72
2023/05/21 07:26:26;;;;;;;16.30;14.60;;;17.90;68.50;;;;;;5035508;28;20029;-72
2023/05/21 07:28:52;;;;;;;21.40;12.90;;;18.10;68.00;;;;;;5034275;28;20037;-74
2023/05/21 07:31:18;;;;;;;19.38;14.75;;;18.20;69.60;;;;;;5035633;28;20025;-74
2023/05/21 07:33:43;;;;;;;19.45;14.82;;;18.40;68.20;;;;;;5035301;28;20036;-74
2023/05/21 07:36:09;;;;;;;22.08;11.77;;;18.40;67.40;;;;;;5035356;28;20048;-76
2023/05/21 07:38:34;;;;;;;17.33;14.68;;;18.50;67.70;;;;;;5035460;28;20022;-74
2023/05/21 07:41:00;;;;;;;15.07;11.95;;;18.70;66.40;;;;;;5034264;28;20026;-75
2023/05/21 07:43:26;;;;;;;17.90;13.20;;;18.80;66.70;;;;;;5035402;28;20396;-76
2023/05/21 07:45:51;;;;;;;17.60;14.25;;;19.00;65.60;;;;;;5035204;28;20096;-74
2023/05/21 07:48:17;;;;;;;17.80;12.88;;;19.10;64.90;;;;;;5035048;28;20064;-74
2023/05/21 07:50:43;;;;;;;19.35;14.95;;;19.30;64.30;;;;;;5035213;28;20032;-74
2023/05/21 07:53:09;;;;;;;17.67;14.15;;;19.50;63.60;;;;;;5035188;28;20028;-76
2023/05/21 07:55:35;;;;;;;22.50;13.63;;;19.30;64.10;;;;;;5035295;28;20025;-73
2023/05/21 07:58:00;;;;;;;15.73;12.40;;;19.50;63.40;;;;;;5035112;28;20439;-73
2023/05/21 08:00:26;;;;;;;14.80;12.65;;;19.80;62.70;;;;;;5035128;28;20025;-73
2023/05/21 08:02:51;;;;;;;17.08;12.75;;;20.10;61.20;;;;;;5035073;28;20040;-74
2023/05/21 08:05:17;;;;;;;17.00;15.13;;;20.40;60.00;;;;;;5034992;28;20104;-73
2023/05/21 08:07:43;;;;;;;18.65;15.77;;;20.20;59.90;;;;;;5035117;28;20113;-75
2023/05/21 08:10:09;;;;;;;18.27;15.60;;;20.10;59.60;;;;;;5034831;28;20045;-75
2023/05/21 08:12:35;;;;;;;19.55;15.75;;;20.10;59.90;;;;;;5034813;28;20025;-75
2023/05/21 08:15:00;;;;;;;18.77;14.77;;;19.70;61.70;;;;;;5034759;28;20021;-74
2023/05/21 08:17:27;;;;;;;20.60;15.20;;;19.60;62.40;;;;;;5034659;28;20470;-74
2023/05/21 08:19:53;;;;;;;22.30;15.00;;;19.70;62.80;;;;;;5033268;28;20022;-74
2023/05/21 08:22:18;;;;;;;18.83;14.20;;;20.00;61.80;;;;;;5034368;28;20029;-75
2023/05/21 08:24:44;;;;;;;19.45;15.15;;;20.10;61.10;;;;;;5034417;28;20025;-75
2023/05/21 08:27:10;;;;;;;17.15;14.77;;;20.20;60.80;;;;;;5034480;28;20029;-75
2023/05/21 08:29:35;;;;;;;16.67;14.77;;;20.20;61.20;;;;;;5034347;28;20033;-74
2023/05/21 08:32:01;;;;;;;21.58;16.00;;;20.30;61.50;;;;;;5034545;28;20458;-77
2023/05/21 08:34:26;;;;;;;18.73;15.02;;;20.30;59.60;;;;;;5034390;28;20029;-74
2023/05/21 08:36:52;;;;;;;17.52;14.63;;;20.20;62.10;;;;;;5034368;28;20482;-75
2023/05/21 08:39:18;;;;;;;15.13;13.52;;;20.30;61.10;;;;;;5034332;28;20028;-74
2023/05/21 08:41:48;;;;;;;14.25;12.55;;;20.30;61.80;;;;;;5034250;28;20067;-75
2023/05/21 08:44:17;;;;;;;17.77;15.43;;;20.50;62.60;;;;;;5034273;28;20143;-75
2023/05/21 08:46:48;;;;;;;16.65;13.57;;;20.70;60.50;;;;;;5033839;28;20033;-74
2023/05/21 08:49:17;;;;;;;22.55;15.60;;;20.80;60.10;;;;;;5034021;28;20037;-75
2023/05/21 08:51:44;;;;;;;18.45;15.13;;;20.50;60.40;;;;;;5033968;28;20017;-74
2023/05/21 08:54:12;;;;;;;21.15;15.60;;;20.30;63.00;;;;;;5033896;28;20036;-75
2023/05/21 08:56:44;;;;;;;18.73;15.00;;;20.40;62.60;;;;;;5034031;28;20022;-76
2023/05/21 08:59:11;;;;;;;19.20;15.80;;;20.20;63.40;;;;;;5034021;28;20052;-75
2023/05/21 09:01:44;;;;;;;15.32;13.27;;;20.20;62.40;;;;;;5034121;28;20017;-77
2023/05/21 09:04:13;;;;;;;19.35;16.48;;;20.30;63.00;;;;;;5033956;28;20021;-75
2023/05/21 09:06:39;;;;;;;17.95;13.35;;;20.60;62.50;;;;;;5033908;28;20380;-74
2023/05/21 09:09:29;;;;;;;17.83;14.48;;;20.70;61.80;;;;;;5033717;28;20037;-75
2023/05/21 09:11:54;;;;;;;19.42;15.45;;;20.80;61.40;;;;;;5022750;28;20042;-74
2023/05/21 09:14:22;;;;;;;17.10;14.93;;;20.80;60.80;;;;;;5033701;28;20038;-74
2023/05/21 09:16:47;;;;;;;16.55;14.80;;;20.90;61.80;;;;;;5033562;28;20072;-75
2023/05/21 09:19:16;;;;;;;15.77;13.88;;;21.10;61.20;;;;;;5033571;28;20025;-74
2023/05/21 09:21:42;;;;;;;17.58;13.98;;;21.20;61.00;;;;;;5033453;28;20021;-74
2023/05/21 09:24:08;;;;;;;20.98;15.82;;;21.30;61.70;;;;;;5033593;28;20021;-74
2023/05/21 09:26:34;;;;;;;18.52;14.27;;;21.20;60.60;;;;;;5031985;28;20525;-75
2023/05/21 09:29:00;;;;;;;18.98;12.98;;;21.20;61.50;;;;;;5033362;28;20517;-74
2023/05/21 09:31:26;;;;;;;18.65;15.38;;;21.30;61.00;;;;;;5033332;28;20033;-75
2023/05/21 09:33:55;;;;;;;18.23;14.32;;;21.40;60.90;;;;;;5033284;28;20029;-74
2023/05/21 09:36:21;;;;;;;20.55;14.30;;;21.40;60.60;;;;;;5033362;28;20035;-75
2023/05/21 09:38:50;;;;;;;18.15;15.52;;;21.60;60.20;;;;;;5033251;28;20459;-76
2023/05/21 09:41:16;;;;;;;19.40;14.13;;;21.60;60.30;;;;;;5033137;28;20025;-74
2023/05/21 09:43:43;;;;;;;19.05;14.18;;;21.60;61.40;;;;;;5033271;28;20079;-74
2023/05/21 09:46:09;;;;;;;18.35;14.93;;;21.70;59.40;;;;;;5033269;28;20037;-74
2023/05/21 09:48:37;;;;;;;17.55;15.65;;;21.60;59.80;;;;;;5032909;28;20041;-74
2023/05/21 09:51:15;;;;;;;17.15;15.00;;;21.60;59.30;;;;;;5032904;28;20030;-74
2023/05/21 09:53:51;;;;;;;17.92;14.82;;;21.70;60.40;;;;;;5032921;28;20060;-74
2023/05/21 09:56:21;;;;;;;17.70;14.32;;;21.70;61.20;;;;;;5032954;28;20068;-74
2023/05/21 09:58:47;;;;;;;18.83;12.80;;;21.80;60.10;;;;;;5033132;28;20044;-74
2023/05/21 10:01:12;;;;;;;16.25;14.45;;;22.10;59.20;;;;;;5032989;28;20025;-75
2023/05/21 10:03:39;;;;;;;17.02;13.82;;;22.30;58.20;;;;;;5032777;28;20026;-75
2023/05/21 10:06:08;;;;;;;16.70;14.00;;;22.40;58.00;;;;;;5032355;28;20128;-74
2023/05/21 10:08:36;;;;;;;16.02;14.30;;;22.40;58.30;;;;;;5032667;28;20037;-75
2023/05/21 10:11:04;;;;;;;20.67;14.07;;;22.50;57.50;;;;;;5033020;28;20022;-73
2023/05/21 10:13:33;;;;;;;15.23;13.63;;;22.60;57.20;;;;;;5032807;28;20056;-74
2023/05/21 10:16:03;;;;;;;16.90;13.63;;;22.40;57.50;;;;;;5032551;28;20026;-74
2023/05/21 10:18:31;;;;;;;18.35;13.57;;;22.10;58.10;;;;;;5032713;28;20080;-75
2023/05/21 10:20:57;;;;;;;21.52;14.27;;;22.00;58.70;;;;;;5032493;28;20421;-75
2023/05/21 10:23:24;;;;;;;17.13;13.13;;;22.00;59.30;;;;;;5032905;28;20037;-75
2023/05/21 10:25:51;;;;;;;15.52;13.93;;;21.90;59.90;;;;;;5032855;28;20025;-76
2023/05/21 10:28:17;;;;;;;14.32;12.82;;;22.10;59.60;;;;;;5032679;28;20112;-75
2023/05/21 10:30:45;;;;;;;15.65;13.40;;;22.20;59.20;;;;;;5032749;28;20021;-75
2023/05/21 10:33:15;;;;;;;15.18;12.32;;;22.40;58.60;;;;;;5032313;28;20022;-75
2023/05/21 10:35:41;;;;;;;15.38;12.88;;;22.60;58.20;;;;;;5032421;28;20025;-75
2023/05/21 10:38:08;;;;;;;15.20;12.50;;;23.00;57.80;;;;;;5032419;28;20034;-75
2023/05/21 10:40:37;;;;;;;15.75;13.57;;;23.20;57.10;;;;;;5031342;28;20532;-74
2023/05/21 10:43:37;;;;;;;16.05;12.98;;;23.30;56.10;;;;;;5032774;28;20022;-74
2023/05/21 10:46:31;;;;;;;19.58;14.07;;;23.50;55.10;;;;;;5031373;28;20129;-74
2023/05/21 10:49:12;;;;;;;16.23;14.13;;;23.20;55.90;;;;;;5032498;28;20466;-73
2023/05/21 10:51:50;;;;;;;17.27;13.70;;;23.00;56.20;;;;;;5032516;28;20028;-74
2023/05/21 10:54:24;;;;;;;12.98;11.45;;;23.10;57.10;;;;;;5032625;28;20057;-75
2023/05/21 10:57:00;;;;;;;18.33;13.10;;;23.30;56.50;;;;;;5032678;28;20072;-74
2023/05/21 10:59:41;;;;;;;14.95;12.73;;;23.60;55.10;;;;;;5032549;28;20393;-75
2023/05/21 11:02:08;;;;;;;15.25;13.07;;;23.60;54.90;;;;;;5032496;28;20017;-74
2023/05/21 11:04:38;;;;;;;17.58;12.60;;;23.50;55.00;;;;;;5032500;28;20105;-74
2023/05/21 11:07:04;;;;;;;14.23;12.23;;;23.40;54.40;;;;;;5032493;28;20164;-75
2023/05/21 11:09:30;;;;;;;16.02;12.00;;;23.40;54.70;;;;;;5032316;28;20041;-73
2023/05/21 11:11:57;;;;;;;15.35;13.20;;;23.40;54.70;;;;;;5030987;28;20041;-74
2023/05/21 11:14:34;;;;;;;15.23;13.50;;;23.60;54.50;;;;;;5032245;28;20048;-74
2023/05/21 11:17:12;;;;;;;15.88;13.98;;;23.50;54.70;;;;;;5033450;28;20079;-72
2023/05/21 11:19:39;;;;;;;14.25;12.85;;;23.50;55.10;;;;;;5035724;28;20021;-73
2023/05/21 11:22:19;;;;;;;14.73;12.93;;;23.50;55.00;;;;;;5035943;28;20028;-73
2023/05/21 11:24:45;;;;;;;16.17;13.40;;;23.60;55.00;;;;;;5035820;28;20052;-73
2023/05/21 11:27:11;;;;;;;15.65;12.25;;;23.60;54.90;;;;;;5035799;28;20045;-73
2023/05/21 11:29:43;;;;;;;12.48;11.18;;;23.70;54.80;;;;;;5035287;28;20033;-74
2023/05/21 11:32:10;;;;;;;15.70;12.65;;;24.10;54.40;;;;;;5034458;28;20470;-74
2023/05/21 11:34:44;;;;;;;18.02;12.85;;;24.40;53.80;;;;;;5035622;28;20032;-74
2023/05/21 11:37:21;;;;;;;12.95;10.40;;;24.50;51.60;;;;;;5034218;28;20021;-73
2023/05/21 11:39:48;;;;;;;14.80;11.70;;;24.60;52.40;;;;;;5035637;28;20028;-74
2023/05/21 11:42:34;;;;;;;16.10;12.82;;;24.70;51.60;;;;;;5035583;28;20017;-73
2023/05/21 11:45:01;;;;;;;13.95;11.13;;;24.80;51.30;;;;;;5035615;28;20034;-73
2023/05/21 11:47:28;;;;;;;14.13;11.30;;;25.00;51.50;;;;;;5036375;28;20041;-74
2023/05/21 11:49:55;;;;;;;13.45;11.65;;;25.10;50.60;;;;;;5037067;28;20033;-73
2023/05/21 11:52:22;;;;;;;14.05;12.23;;;24.90;51.40;;;;;;5035877;28;20109;-74
2023/05/21 11:54:54;;;;;;;14.45;12.95;;;24.80;50.90;;;;;;5035432;28;20029;-73
2023/05/21 11:57:20;;;;;;;16.25;12.80;;;24.50;52.00;;;;;;5035279;28;20390;-73
2023/05/21 11:59:47;;;;;;;17.63;12.13;;;24.30;52.80;;;;;;5035113;28;20026;-73
2023/05/21 12:02:17;;;;;;;12.80;11.27;;;24.60;52.60;;;;;;5035267;28;20455;-74
2023/05/21 12:04:44;;;;;;;14.75;11.60;;;25.00;52.10;;;;;;5035246;28;20032;-74
2023/05/21 12:07:12;;;;;;;11.93;10.65;;;25.30;50.50;;;;;;5034965;28;20359;-74
2023/05/21 12:09:48;;;;;;;18.70;12.25;;;25.60;49.30;;;;;;5034830;28;20095;-74
2023/05/21 12:12:20;;;;;;;18.48;12.80;;;25.70;47.80;;;;;;5034889;28;20032;-74
2023/05/21 12:14:50;;;;;;;14.90;12.27;;;25.40;48.60;;;;;;5034866;28;20025;-74
2023/05/21 12:17:18;;;;;;;13.88;12.35;;;25.10;49.80;;;;;;5034729;28;20033;-72
2023/05/21 12:19:45;;;;;;;13.88;12.23;;;24.90;50.30;;;;;;5034611;28;20109;-73
2023/05/21 12:22:11;;;;;;;15.00;11.63;;;24.90;50.40;;;;;;5034698;28;20070;-73
2023/05/21 12:24:37;;;;;;;12.02;10.77;;;25.00;50.70;;;;;;5034675;28;20104;-73
2023/05/21 12:27:08;;;;;;;14.63;11.90;;;25.20;50.20;;;;;;5034254;28;20371;-72
2023/05/21 12:29:37;;;;;;;13.02;10.35;;;25.50;49.70;;;;;;5034631;28;20398;-73
2023/05/21 12:32:08;;;;;;;14.52;12.50;;;25.70;48.60;;;;;;5034573;28;20022;-74